sensor_id;sensor_type;location;lat;lon;timestamp;pressure;altitude;pressure_sealevel;temperature;humidity
55468;BME280;41332;42.702;23.200;2022-11-20T00:00:46;93239.09;;;16.37;60.28
55468;BME280;41332;42.702;23.200;2022-11-20T00:03:12;93261.44;;;16.43;60.51
55468;BME280;41332;42.702;23.200;2022-11-20T00:05:38;93222.44;;;16.40;60.13
55468;BME280;41332;42.702;23.200;2022-11-20T00:08:03;93266.72;;;16.36;60.79
55468;BME280;41332;42.702;23.200;2022-11-20T00:10:29;93246.66;;;16.38;60.61
55468;BME280;41332;42.702;23.200;2022-11-20T00:12:54;93247.44;;;16.39;60.73
55468;BME280;41332;42.702;23.200;2022-11-20T00:15:20;93229.63;;;16.36;60.87
55468;BME280;41332;42.702;23.200;2022-11-20T00:17:46;93225.84;;;16.33;60.78
55468;BME280;41332;42.702;23.200;2022-11-20T00:20:11;93231.91;;;16.34;61.51
55468;BME280;41332;42.702;23.200;2022-11-20T00:22:38;93228.88;;;16.35;61.16
55468;BME280;41332;42.702;23.200;2022-11-20T00:25:03;93250.81;;;16.28;61.03
55468;BME280;41332;42.702;23.200;2022-11-20T00:27:29;93234.53;;;16.30;60.80
55468;BME280;41332;42.702;23.200;2022-11-20T00:29:54;93234.56;;;16.37;60.59
55468;BME280;41332;42.702;23.200;2022-11-20T00:32:19;93236.81;;;16.35;60.91
55468;BME280;41332;42.702;23.200;2022-11-20T00:34:45;93244.78;;;16.39;61.17
55468;BME280;41332;42.702;23.200;2022-11-20T00:37:10;93261.41;;;16.36;61.05
55468;BME280;41332;42.702;23.200;2022-11-20T00:39:36;93259.91;;;16.27;61.26
55468;BME280;41332;42.702;23.200;2022-11-20T00:42:01;93264.44;;;16.30;61.26
55468;BME280;41332;42.702;23.200;2022-11-20T00:44:26;93248.53;;;16.30;61.39
55468;BME280;41332;42.702;23.200;2022-11-20T00:46:52;93278.47;;;16.35;61.50
55468;BME280;41332;42.702;23.200;2022-11-20T00:49:18;93262.19;;;16.36;61.33
55468;BME280;41332;42.702;23.200;2022-11-20T00:51:43;93272.38;;;16.30;61.71
55468;BME280;41332;42.702;23.200;2022-11-20T00:54:09;93268.25;;;16.29;61.77
55468;BME280;41332;42.702;23.200;2022-11-20T00:56:34;93260.28;;;16.29;61.57
55468;BME280;41332;42.702;23.200;2022-11-20T00:59:00;93252.69;;;16.28;61.01
55468;BME280;41332;42.702;23.200;2022-11-20T01:01:26;93266.38;;;16.37;61.09
55468;BME280;41332;42.702;23.200;2022-11-20T01:03:54;93245.16;;;16.37;60.92
55468;BME280;41332;42.702;23.200;2022-11-20T01:06:24;93256.50;;;16.34;61.17
55468;BME280;41332;42.702;23.200;2022-11-20T01:08:52;93244.41;;;16.29;61.25
55468;BME280;41332;42.702;23.200;2022-11-20T01:11:19;93225.84;;;16.26;61.33
55468;BME280;41332;42.702;23.200;2022-11-20T01:13:47;93230.00;;;16.34;61.24
55468;BME280;41332;42.702;23.200;2022-11-20T01:16:19;93215.22;;;16.33;61.27
55468;BME280;41332;42.702;23.200;2022-11-20T01:18:47;93205.41;;;16.34;61.44
55468;BME280;41332;42.702;23.200;2022-11-20T01:21:27;93208.03;;;16.30;61.32
55468;BME280;41332;42.702;23.200;2022-11-20T01:23:53;93212.22;;;16.27;61.42
55468;BME280;41332;42.702;23.200;2022-11-20T01:26:26;93185.34;;;16.22;61.39
55468;BME280;41332;42.702;23.200;2022-11-20T01:28:53;93201.97;;;16.19;61.43
55468;BME280;41332;42.702;23.200;2022-11-20T01:33:48;93191.38;;;16.15;61.44
55468;BME280;41332;42.702;23.200;2022-11-20T01:36:15;93190.25;;;16.23;61.11
55468;BME280;41332;42.702;23.200;2022-11-20T01:38:41;93186.47;;;16.17;60.98
55468;BME280;41332;42.702;23.200;2022-11-20T01:41:09;93197.06;;;16.21;61.19
55468;BME280;41332;42.702;23.200;2022-11-20T01:43:35;93192.53;;;16.25;60.82
55468;BME280;41332;42.702;23.200;2022-11-20T01:46:19;93198.56;;;16.25;60.71
55468;BME280;41332;42.702;23.200;2022-11-20T01:51:28;93210.31;;;16.24;60.63
55468;BME280;41332;42.702;23.200;2022-11-20T01:53:58;93216.00;;;16.26;60.51
55468;BME280;41332;42.702;23.200;2022-11-20T01:56:25;93202.72;;;16.23;60.48
55468;BME280;41332;42.702;23.200;2022-11-20T01:58:56;93206.91;;;16.31;60.12
55468;BME280;41332;42.702;23.200;2022-11-20T02:01:23;93201.25;;;16.22;59.34
55468;BME280;41332;42.702;23.200;2022-11-20T02:26:35;93211.84;;;16.87;57.53
55468;BME280;41332;42.702;23.200;2022-11-20T02:29:03;93217.16;;;16.69;57.66
55468;BME280;41332;42.702;23.200;2022-11-20T02:31:33;93219.81;;;16.69;57.86
55468;BME280;41332;42.702;23.200;2022-11-20T02:33:58;93221.69;;;16.61;58.21
55468;BME280;41332;42.702;23.200;2022-11-20T02:36:26;93219.81;;;16.51;59.03
55468;BME280;41332;42.702;23.200;2022-11-20T02:38:53;93239.09;;;16.44;59.13
55468;BME280;41332;42.702;23.200;2022-11-20T02:41:19;93244.00;;;16.38;59.67
55468;BME280;41332;42.702;23.200;2022-11-20T02:43:44;93211.47;;;16.23;59.62
55468;BME280;41332;42.702;23.200;2022-11-20T02:46:10;93221.66;;;16.25;60.32
55468;BME280;41332;42.702;23.200;2022-11-20T02:48:35;93231.13;;;16.26;60.76
55468;BME280;41332;42.702;23.200;2022-11-20T02:51:01;93224.31;;;16.25;60.96
55468;BME280;41332;42.702;23.200;2022-11-20T02:53:26;93222.38;;;16.07;61.48
55468;BME280;41332;42.702;23.200;2022-11-20T02:55:52;93225.41;;;16.06;62.14
55468;BME280;41332;42.702;23.200;2022-11-20T02:58:17;93229.22;;;16.12;61.58
55468;BME280;41332;42.702;23.200;2022-11-20T03:00:43;93217.88;;;16.08;61.65
55468;BME280;41332;42.702;23.200;2022-11-20T03:03:08;93226.56;;;16.01;62.11
55468;BME280;41332;42.702;23.200;2022-11-20T03:05:34;93226.53;;;16.05;61.31
55468;BME280;41332;42.702;23.200;2022-11-20T03:07:59;93234.91;;;16.10;61.72
55468;BME280;41332;42.702;23.200;2022-11-20T03:10:25;93222.00;;;15.91;62.13
55468;BME280;41332;42.702;23.200;2022-11-20T03:12:54;93241.66;;;16.01;62.15
55468;BME280;41332;42.702;23.200;2022-11-20T03:15:21;93241.66;;;15.90;62.51
55468;BME280;41332;42.702;23.200;2022-11-20T03:17:46;93249.97;;;15.92;62.83
55468;BME280;41332;42.702;23.200;2022-11-20T03:20:11;93238.59;;;15.88;62.97
55468;BME280;41332;42.702;23.200;2022-11-20T03:22:37;93223.09;;;15.82;63.21
55468;BME280;41332;42.702;23.200;2022-11-20T03:25:03;93232.94;;;15.82;63.68
55468;BME280;41332;42.702;23.200;2022-11-20T03:27:34;93230.28;;;15.89;63.20
55468;BME280;41332;42.702;23.200;2022-11-20T03:30:00;93224.56;;;15.76;63.49
55468;BME280;41332;42.702;23.200;2022-11-20T03:32:25;93231.75;;;15.79;63.26
55468;BME280;41332;42.702;23.200;2022-11-20T03:34:51;93235.16;;;15.76;63.07
55468;BME280;41332;42.702;23.200;2022-11-20T03:37:16;93235.16;;;15.76;63.12
55468;BME280;41332;42.702;23.200;2022-11-20T03:39:41;93240.44;;;15.73;62.98
55468;BME280;41332;42.702;23.200;2022-11-20T03:42:08;93239.34;;;15.81;62.73
55468;BME280;41332;42.702;23.200;2022-11-20T03:44:53;93240.88;;;15.89;62.45
55468;BME280;41332;42.702;23.200;2022-11-20T03:47:18;93242.72;;;15.78;62.33
55468;BME280;41332;42.702;23.200;2022-11-20T03:49:44;93233.66;;;15.79;62.30
55468;BME280;41332;42.702;23.200;2022-11-20T03:52:09;93239.72;;;15.87;62.13
55468;BME280;41332;42.702;23.200;2022-11-20T03:54:35;93224.97;;;15.82;61.90
55468;BME280;41332;42.702;23.200;2022-11-20T03:57:00;93267.38;;;15.86;61.95
55468;BME280;41332;42.702;23.200;2022-11-20T03:59:25;93249.22;;;15.84;61.84
55468;BME280;41332;42.702;23.200;2022-11-20T04:01:51;93266.59;;;15.85;62.09
55468;BME280;41332;42.702;23.200;2022-11-20T04:04:16;93262.81;;;15.86;61.97
55468;BME280;41332;42.702;23.200;2022-11-20T04:06:41;93256.31;;;15.80;62.17
55468;BME280;41332;42.702;23.200;2022-11-20T04:09:07;93255.22;;;15.81;62.30
55468;BME280;41332;42.702;23.200;2022-11-20T04:11:35;93257.50;;;15.82;62.21
55468;BME280;41332;42.702;23.200;2022-11-20T04:14:03;93249.94;;;15.81;62.19
55468;BME280;41332;42.702;23.200;2022-11-20T04:16:30;93251.03;;;15.80;62.04
55468;BME280;41332;42.702;23.200;2022-11-20T04:18:58;93241.63;;;15.82;62.01
55468;BME280;41332;42.702;23.200;2022-11-20T04:21:24;93246.91;;;15.79;61.81
55468;BME280;41332;42.702;23.200;2022-11-20T04:23:51;93232.13;;;15.74;61.94
55468;BME280;41332;42.702;23.200;2022-11-20T04:26:17;93245.69;;;15.65;62.06
55468;BME280;41332;42.702;23.200;2022-11-20T04:28:43;93225.28;;;15.62;62.22
55468;BME280;41332;42.702;23.200;2022-11-20T04:31:14;93218.47;;;15.65;62.22
55468;BME280;41332;42.702;23.200;2022-11-20T04:33:40;93232.47;;;15.65;62.48
55468;BME280;41332;42.702;23.200;2022-11-20T04:36:09;93238.88;;;15.61;62.33
55468;BME280;41332;42.702;23.200;2022-11-20T04:38:35;93234.72;;;15.63;62.73
55468;BME280;41332;42.702;23.200;2022-11-20T04:41:03;93241.53;;;15.61;62.90
55468;BME280;41332;42.702;23.200;2022-11-20T04:43:29;93235.47;;;15.60;62.99
55468;BME280;41332;42.702;23.200;2022-11-20T04:45:56;93237.34;;;15.56;63.48
55468;BME280;41332;42.702;23.200;2022-11-20T04:48:22;93237.34;;;15.56;63.81
55468;BME280;41332;42.702;23.200;2022-11-20T04:50:47;93236.97;;;15.58;63.90
55468;BME280;41332;42.702;23.200;2022-11-20T04:53:13;93231.28;;;15.59;64.02
55468;BME280;41332;42.702;23.200;2022-11-20T04:55:38;93232.44;;;15.55;64.05
55468;BME280;41332;42.702;23.200;2022-11-20T04:58:04;93222.97;;;15.54;64.11
55468;BME280;41332;42.702;23.200;2022-11-20T05:00:29;93213.13;;;15.47;64.70
55468;BME280;41332;42.702;23.200;2022-11-20T05:02:55;93217.28;;;15.55;64.41
55468;BME280;41332;42.702;23.200;2022-11-20T05:05:20;93217.28;;;15.48;64.72
55468;BME280;41332;42.702;23.200;2022-11-20T05:07:45;93202.50;;;15.43;64.94
55468;BME280;41332;42.702;23.200;2022-11-20T05:10:11;93191.53;;;15.38;65.16
55468;BME280;41332;42.702;23.200;2022-11-20T05:12:36;93197.59;;;15.42;65.38
55468;BME280;41332;42.702;23.200;2022-11-20T05:15:02;93196.81;;;15.38;65.47
55468;BME280;41332;42.702;23.200;2022-11-20T05:17:27;93207.34;;;15.27;66.07
55468;BME280;41332;42.702;23.200;2022-11-20T05:19:53;93213.00;;;15.25;66.26
55468;BME280;41332;42.702;23.200;2022-11-20T05:22:18;93208.06;;;15.20;66.58
55468;BME280;41332;42.702;23.200;2022-11-20T05:24:43;93213.00;;;15.18;66.85
55468;BME280;41332;42.702;23.200;2022-11-20T05:27:09;93213.72;;;15.15;67.18
55468;BME280;41332;42.702;23.200;2022-11-20T05:29:34;93216.00;;;15.20;67.30
55468;BME280;41332;42.702;23.200;2022-11-20T05:31:59;93209.56;;;15.18;67.48
55468;BME280;41332;42.702;23.200;2022-11-20T05:34:25;93211.41;;;15.10;68.01
55468;BME280;41332;42.702;23.200;2022-11-20T05:36:50;93206.13;;;15.10;68.04
55468;BME280;41332;42.702;23.200;2022-11-20T05:39:15;93204.56;;;15.02;68.29
55468;BME280;41332;42.702;23.200;2022-11-20T05:41:41;93214.75;;;14.99;68.43
55468;BME280;41332;42.702;23.200;2022-11-20T05:44:06;93220.78;;;14.96;68.22
55468;BME280;41332;42.702;23.200;2022-11-20T05:46:32;93206.81;;;14.99;68.35
55468;BME280;41332;42.702;23.200;2022-11-20T05:48:58;93211.38;;;14.99;68.08
55468;BME280;41332;42.702;23.200;2022-11-20T05:51:23;93210.22;;;14.96;67.62
55468;BME280;41332;42.702;23.200;2022-11-20T05:53:49;93205.66;;;14.93;68.38
55468;BME280;41332;42.702;23.200;2022-11-20T05:56:17;93224.59;;;14.99;68.21
55468;BME280;41332;42.702;23.200;2022-11-20T05:58:43;93221.22;;;15.06;67.86
55468;BME280;41332;42.702;23.200;2022-11-20T06:01:21;93227.16;;;14.92;68.43
55468;BME280;41332;42.702;23.200;2022-11-20T06:03:47;93225.72;;;15.02;67.77
55468;BME280;41332;42.702;23.200;2022-11-20T06:06:16;93229.53;;;15.04;67.71
55468;BME280;41332;42.702;23.200;2022-11-20T06:08:41;93229.91;;;15.06;67.72
55468;BME280;41332;42.702;23.200;2022-11-20T06:11:08;93234.88;;;15.15;67.69
55468;BME280;41332;42.702;23.200;2022-11-20T06:13:34;93242.06;;;16.03;65.54
55468;BME280;41332;42.702;23.200;2022-11-20T06:16:00;93234.56;;;16.59;62.82
55468;BME280;41332;42.702;23.200;2022-11-20T06:18:27;93241.34;;;17.28;60.68
55468;BME280;41332;42.702;23.200;2022-11-20T06:21:05;93240.13;;;17.55;58.81
55468;BME280;41332;42.702;23.200;2022-11-20T06:23:32;93239.84;;;17.20;60.14
55468;BME280;41332;42.702;23.200;2022-11-20T06:26:04;93247.06;;;17.05;60.81
55468;BME280;41332;42.702;23.200;2022-11-20T06:28:31;93260.31;;;16.84;61.37
55468;BME280;41332;42.702;23.200;2022-11-20T06:30:57;93259.13;;;17.32;60.46
55468;BME280;41332;42.702;23.200;2022-11-20T06:33:23;93260.31;;;18.30;57.45
55468;BME280;41332;42.702;23.200;2022-11-20T06:35:48;93255.38;;;19.30;54.78
55468;BME280;41332;42.702;23.200;2022-11-20T06:38:14;93264.16;;;20.00;52.16
55468;BME280;41332;42.702;23.200;2022-11-20T06:40:43;93259.44;;;20.66;50.51
55468;BME280;41332;42.702;23.200;2022-11-20T06:43:09;93265.13;;;21.39;48.75
55468;BME280;41332;42.702;23.200;2022-11-20T06:45:35;93280.88;;;21.57;47.56
55468;BME280;41332;42.702;23.200;2022-11-20T06:48:01;93277.00;;;22.38;45.57
55468;BME280;41332;42.702;23.200;2022-11-20T06:50:26;93271.53;;;22.79;44.30
55468;BME280;41332;42.702;23.200;2022-11-20T06:52:51;93279.63;;;22.75;43.86
55468;BME280;41332;42.702;23.200;2022-11-20T06:55:17;93269.94;;;22.48;44.06
55468;BME280;41332;42.702;23.200;2022-11-20T06:57:42;93264.53;;;22.12;45.26
55468;BME280;41332;42.702;23.200;2022-11-20T07:00:09;93264.59;;;22.81;44.46
55468;BME280;41332;42.702;23.200;2022-11-20T07:02:34;93278.81;;;22.62;43.75
55468;BME280;41332;42.702;23.200;2022-11-20T07:05:00;93283.44;;;22.41;44.33
55468;BME280;41332;42.702;23.200;2022-11-20T07:07:25;93279.75;;;21.78;45.60
55468;BME280;41332;42.702;23.200;2022-11-20T07:09:50;93295.38;;;21.56;46.00
55468;BME280;41332;42.702;23.200;2022-11-20T07:12:16;93295.88;;;20.49;48.93
55468;BME280;41332;42.702;23.200;2022-11-20T07:14:41;93287.81;;;19.59;51.48
55468;BME280;41332;42.702;23.200;2022-11-20T07:17:07;93282.97;;;19.05;52.89
55468;BME280;41332;42.702;23.200;2022-11-20T07:19:32;93288.03;;;18.29;55.20
55468;BME280;41332;42.702;23.200;2022-11-20T07:21:57;93283.66;;;17.83;57.09
55468;BME280;41332;42.702;23.200;2022-11-20T07:24:23;93284.16;;;17.34;58.90
55468;BME280;41332;42.702;23.200;2022-11-20T07:26:48;93269.81;;;17.06;59.89
55468;BME280;41332;42.702;23.200;2022-11-20T07:29:16;93292.13;;;16.62;61.19
55468;BME280;41332;42.702;23.200;2022-11-20T07:31:42;93287.53;;;16.41;61.79
55468;BME280;41332;42.702;23.200;2022-11-20T07:34:08;93290.94;;;16.30;62.58
55468;BME280;41332;42.702;23.200;2022-11-20T07:36:34;93293.16;;;16.10;62.95
55468;BME280;41332;42.702;23.200;2022-11-20T07:38:59;93305.66;;;16.13;63.49
55468;BME280;41332;42.702;23.200;2022-11-20T07:41:25;93293.91;;;16.04;63.49
55468;BME280;41332;42.702;23.200;2022-11-20T07:43:50;93299.19;;;16.07;63.61
55468;BME280;41332;42.702;23.200;2022-11-20T07:46:16;93303.34;;;15.97;63.54
55468;BME280;41332;42.702;23.200;2022-11-20T07:48:41;93309.38;;;15.94;63.63
55468;BME280;41332;42.702;23.200;2022-11-20T07:51:06;93309.72;;;15.86;64.20
55468;BME280;41332;42.702;23.200;2022-11-20T07:53:32;93310.88;;;15.88;63.87
55468;BME280;41332;42.702;23.200;2022-11-20T07:56:01;93307.06;;;15.89;63.93
55468;BME280;41332;42.702;23.200;2022-11-20T07:58:29;93318.09;;;15.95;63.72
55468;BME280;41332;42.702;23.200;2022-11-20T08:00:54;93329.81;;;15.94;63.75
55468;BME280;41332;42.702;23.200;2022-11-20T08:03:20;93326.75;;;15.92;64.05
55468;BME280;41332;42.702;23.200;2022-11-20T08:05:45;93331.31;;;15.95;64.20
55468;BME280;41332;42.702;23.200;2022-11-20T08:08:11;93334.34;;;15.97;64.46
55468;BME280;41332;42.702;23.200;2022-11-20T08:10:36;93325.69;;;16.04;64.13
55468;BME280;41332;42.702;23.200;2022-11-20T08:13:01;93321.13;;;16.04;64.54
55468;BME280;41332;42.702;23.200;2022-11-20T08:15:50;93325.41;;;16.34;63.51
55468;BME280;41332;42.702;23.200;2022-11-20T08:18:18;93333.75;;;16.43;63.43
55468;BME280;41332;42.702;23.200;2022-11-20T08:20:44;93326.19;;;16.49;63.83
55468;BME280;41332;42.702;23.200;2022-11-20T08:23:10;93317.09;;;16.43;64.75
55468;BME280;41332;42.702;23.200;2022-11-20T08:25:37;93334.50;;;16.51;65.18
55468;BME280;41332;42.702;23.200;2022-11-20T08:28:07;93348.16;;;16.50;65.51
55468;BME280;41332;42.702;23.200;2022-11-20T08:30:33;93335.22;;;16.30;65.85
55468;BME280;41332;42.702;23.200;2022-11-20T08:33:04;93351.09;;;16.15;67.54
55468;BME280;41332;42.702;23.200;2022-11-20T08:35:35;93348.75;;;16.03;68.81
55468;BME280;41332;42.702;23.200;2022-11-20T08:38:01;93347.97;;;15.99;69.22
55468;BME280;41332;42.702;23.200;2022-11-20T08:40:27;93353.31;;;16.03;69.58
55468;BME280;41332;42.702;23.200;2022-11-20T08:42:52;93360.44;;;15.91;69.50
55468;BME280;41332;42.702;23.200;2022-11-20T08:45:18;93358.50;;;15.81;70.80
55468;BME280;41332;42.702;23.200;2022-11-20T08:47:44;93365.94;;;15.68;71.93
55468;BME280;41332;42.702;23.200;2022-11-20T08:50:11;93368.13;;;15.55;72.04
55468;BME280;41332;42.702;23.200;2022-11-20T08:52:37;93368.44;;;15.39;73.20
55468;BME280;41332;42.702;23.200;2022-11-20T08:55:04;93373.97;;;15.23;73.63
55468;BME280;41332;42.702;23.200;2022-11-20T08:57:36;93373.19;;;15.19;74.36
55468;BME280;41332;42.702;23.200;2022-11-20T09:00:04;93365.16;;;15.08;73.38
55468;BME280;41332;42.702;23.200;2022-11-20T09:02:29;93376.03;;;14.99;73.39
55468;BME280;41332;42.702;23.200;2022-11-20T09:04:55;93377.53;;;14.97;74.87
55468;BME280;41332;42.702;23.200;2022-11-20T09:07:20;93389.59;;;14.94;75.40
55468;BME280;41332;42.702;23.200;2022-11-20T09:09:46;93394.84;;;14.87;76.19
55468;BME280;41332;42.702;23.200;2022-11-20T09:12:11;93395.50;;;14.77;76.68
55468;BME280;41332;42.702;23.200;2022-11-20T09:14:37;93406.84;;;14.81;77.13
55468;BME280;41332;42.702;23.200;2022-11-20T09:17:02;93409.00;;;14.68;77.42
55468;BME280;41332;42.702;23.200;2022-11-20T09:19:28;93413.53;;;14.71;77.59
55468;BME280;41332;42.702;23.200;2022-11-20T09:21:53;93401.84;;;14.72;77.62
55468;BME280;41332;42.702;23.200;2022-11-20T09:24:19;93400.38;;;14.75;78.17
55468;BME280;41332;42.702;23.200;2022-11-20T09:26:45;93395.41;;;14.70;77.52
55468;BME280;41332;42.702;23.200;2022-11-20T09:29:11;93393.56;;;14.74;77.56
55468;BME280;41332;42.702;23.200;2022-11-20T09:31:36;93372.78;;;14.72;77.45
55468;BME280;41332;42.702;23.200;2022-11-20T09:34:02;93362.22;;;14.72;78.23
55468;BME280;41332;42.702;23.200;2022-11-20T09:36:27;93352.75;;;14.71;77.16
55468;BME280;41332;42.702;23.200;2022-11-20T09:38:53;93334.28;;;14.75;77.11
55468;BME280;41332;42.702;23.200;2022-11-20T09:55:22;93293.13;;;14.74;75.90
55468;BME280;41332;42.702;23.200;2022-11-20T09:57:50;93306.03;;;14.82;76.08
55468;BME280;41332;42.702;23.200;2022-11-20T10:00:17;93293.66;;;14.94;75.14
55468;BME280;41332;42.702;23.200;2022-11-20T10:02:55;93284.69;;;15.06;75.35
55468;BME280;41332;42.702;23.200;2022-11-20T10:05:46;93291.97;;;15.20;75.11
55468;BME280;41332;42.702;23.200;2022-11-20T10:10:52;93276.47;;;15.22;74.07
55468;BME280;41332;42.702;23.200;2022-11-20T10:13:46;93295.09;;;15.40;72.75
55468;BME280;41332;42.702;23.200;2022-11-20T10:16:38;93292.06;;;15.38;72.88
55468;BME280;41332;42.702;23.200;2022-11-20T10:24:51;93315.19;;;15.52;73.12
55468;BME280;41332;42.702;23.200;2022-11-20T10:32:36;93352.13;;;15.30;74.63
55468;BME280;41332;42.702;23.200;2022-11-20T10:35:17;93349.81;;;15.28;75.09
55468;BME280;41332;42.702;23.200;2022-11-20T10:37:51;93333.03;;;15.06;75.79
55468;BME280;41332;42.702;23.200;2022-11-20T10:40:23;93350.75;;;15.02;76.17
55468;BME280;41332;42.702;23.200;2022-11-20T10:42:56;93332.13;;;14.88;77.93
55468;BME280;41332;42.702;23.200;2022-11-20T10:47:56;93331.75;;;14.48;72.38
55468;BME280;41332;42.702;23.200;2022-11-20T10:50:27;93341.00;;;14.31;71.97
55468;BME280;41332;42.702;23.200;2022-11-20T10:53:05;93357.28;;;14.02;73.40
55468;BME280;41332;42.702;23.200;2022-11-20T10:55:55;93361.28;;;13.89;75.39
55468;BME280;41332;42.702;23.200;2022-11-20T10:58:48;93364.25;;;13.57;74.25
55468;BME280;41332;42.702;23.200;2022-11-20T11:01:19;93364.56;;;13.52;75.65
55468;BME280;41332;42.702;23.200;2022-11-20T11:03:48;93349.81;;;13.47;76.02
55468;BME280;41332;42.702;23.200;2022-11-20T11:06:36;93339.88;;;13.37;77.47
55468;BME280;41332;42.702;23.200;2022-11-20T11:09:12;93319.66;;;13.22;77.45
55468;BME280;41332;42.702;23.200;2022-11-20T11:11:40;93319.50;;;13.11;76.68
55468;BME280;41332;42.702;23.200;2022-11-20T11:14:14;93323.50;;;13.01;77.02
55468;BME280;41332;42.702;23.200;2022-11-20T11:16:51;93318.59;;;12.76;77.13
55468;BME280;41332;42.702;23.200;2022-11-20T11:19:17;93327.13;;;12.69;77.00
55468;BME280;41332;42.702;23.200;2022-11-20T11:21:47;93323.09;;;12.52;77.15
55468;BME280;41332;42.702;23.200;2022-11-20T11:24:24;93329.13;;;12.53;77.02
55468;BME280;41332;42.702;23.200;2022-11-20T11:27:13;93315.53;;;12.51;77.37
55468;BME280;41332;42.702;23.200;2022-11-20T11:29:37;93296.13;;;12.36;78.61
55468;BME280;41332;42.702;23.200;2022-11-20T11:34:30;93312.13;;;12.27;78.03
55468;BME280;41332;42.702;23.200;2022-11-20T11:36:57;93332.00;;;12.25;78.55
55468;BME280;41332;42.702;23.200;2022-11-20T11:39:24;93328.59;;;12.24;79.27
55468;BME280;41332;42.702;23.200;2022-11-20T11:41:51;93328.00;;;12.11;79.03
55468;BME280;41332;42.702;23.200;2022-11-20T11:47:11;93316.50;;;12.19;79.98
55468;BME280;41332;42.702;23.200;2022-11-20T11:49:38;93311.16;;;12.16;80.39
55468;BME280;41332;42.702;23.200;2022-11-20T11:52:15;93323.91;;;12.14;80.52
55468;BME280;41332;42.702;23.200;2022-11-20T11:54:55;93343.84;;;12.15;79.54
55468;BME280;41332;42.702;23.200;2022-11-20T12:00:12;93351.91;;;12.22;80.63
55468;BME280;41332;42.702;23.200;2022-11-20T12:05:39;93345.53;;;12.23;78.38
55468;BME280;41332;42.702;23.200;2022-11-20T12:08:15;93344.91;;;12.30;78.55
55468;BME280;41332;42.702;23.200;2022-11-20T12:16:19;93344.72;;;12.42;77.66
55468;BME280;41332;42.702;23.200;2022-11-20T12:18:47;93343.91;;;12.38;77.75
55468;BME280;41332;42.702;23.200;2022-11-20T12:21:46;93346.53;;;12.38;77.08
55468;BME280;41332;42.702;23.200;2022-11-20T12:24:44;93339.41;;;12.39;77.31
55468;BME280;41332;42.702;23.200;2022-11-20T12:32:22;93334.19;;;12.42;76.28
55468;BME280;41332;42.702;23.200;2022-11-20T12:37:30;93311.38;;;12.50;76.29
55468;BME280;41332;42.702;23.200;2022-11-20T12:40:15;93307.25;;;12.49;77.07
55468;BME280;41332;42.702;23.200;2022-11-20T12:45:46;93308.94;;;12.61;77.33
55468;BME280;41332;42.702;23.200;2022-11-20T13:01:32;93276.97;;;12.85;74.61
55468;BME280;41332;42.702;23.200;2022-11-20T13:04:30;93274.81;;;12.95;74.35
55468;BME280;41332;42.702;23.200;2022-11-20T13:07:05;93271.03;;;12.92;75.55
55468;BME280;41332;42.702;23.200;2022-11-20T13:09:32;93268.19;;;13.05;76.86
55468;BME280;41332;42.702;23.200;2022-11-20T13:14:55;93282.31;;;13.19;77.64
55468;BME280;41332;42.702;23.200;2022-11-20T13:17:34;93304.66;;;13.26;78.38
55468;BME280;41332;42.702;23.200;2022-11-20T13:20:04;93304.66;;;13.26;78.31
55468;BME280;41332;42.702;23.200;2022-11-20T13:22:53;93317.88;;;13.29;78.18
55468;BME280;41332;42.702;23.200;2022-11-20T13:25:33;93323.69;;;13.39;77.27
55468;BME280;41332;42.702;23.200;2022-11-20T13:28:04;93321.09;;;13.42;78.01
55468;BME280;41332;42.702;23.200;2022-11-20T13:30:31;93317.13;;;13.56;78.04
55468;BME280;41332;42.702;23.200;2022-11-20T13:33:04;93327.69;;;13.56;77.57
55468;BME280;41332;42.702;23.200;2022-11-20T13:35:41;93333.72;;;13.56;77.33
55468;BME280;41332;42.702;23.200;2022-11-20T13:38:12;93332.09;;;13.75;77.32
55468;BME280;41332;42.702;23.200;2022-11-20T13:43:28;93322.19;;;13.68;76.37
55468;BME280;41332;42.702;23.200;2022-11-20T13:46:02;93332.28;;;13.62;76.79
55468;BME280;41332;42.702;23.200;2022-11-20T13:48:33;93345.16;;;13.67;76.92
55468;BME280;41332;42.702;23.200;2022-11-20T13:51:43;93350.44;;;13.67;76.43
55468;BME280;41332;42.702;23.200;2022-11-20T13:59:40;93334.72;;;13.75;75.46
55468;BME280;41332;42.702;23.200;2022-11-20T14:02:16;93342.84;;;13.62;75.48
55468;BME280;41332;42.702;23.200;2022-11-20T14:04:45;93336.66;;;13.51;75.77
55468;BME280;41332;42.702;23.200;2022-11-20T14:07:12;93335.00;;;13.39;75.40
55468;BME280;41332;42.702;23.200;2022-11-20T14:09:38;93337.50;;;13.32;75.72
55468;BME280;41332;42.702;23.200;2022-11-20T14:12:15;93320.53;;;13.29;75.67
55468;BME280;41332;42.702;23.200;2022-11-20T14:14:49;93318.22;;;13.28;74.58
55468;BME280;41332;42.702;23.200;2022-11-20T14:17:22;93320.31;;;13.15;74.28
55468;BME280;41332;42.702;23.200;2022-11-20T14:19:50;93310.19;;;12.94;75.17
55468;BME280;41332;42.702;23.200;2022-11-20T14:22:23;93314.00;;;12.96;76.04
55468;BME280;41332;42.702;23.200;2022-11-20T14:25:21;93331.41;;;12.78;76.00
55468;BME280;41332;42.702;23.200;2022-11-20T14:27:57;93341.38;;;12.65;76.33
55468;BME280;41332;42.702;23.200;2022-11-20T14:30:44;93344.47;;;12.70;76.07
55468;BME280;41332;42.702;23.200;2022-11-20T14:33:11;93348.09;;;12.62;75.85
55468;BME280;41332;42.702;23.200;2022-11-20T14:35:44;93344.41;;;12.67;75.62
55468;BME280;41332;42.702;23.200;2022-11-20T14:38:12;93354.25;;;12.70;75.18
55468;BME280;41332;42.702;23.200;2022-11-20T14:40:38;93340.00;;;12.75;75.85
55468;BME280;41332;42.702;23.200;2022-11-20T14:43:25;93340.13;;;12.82;75.57
55468;BME280;41332;42.702;23.200;2022-11-20T14:45:59;93351.72;;;12.77;76.20
55468;BME280;41332;42.702;23.200;2022-11-20T14:48:48;93328.78;;;12.55;76.04